Time;durP1;ratioP1;P1;durP2;ratioP2;P2;SDS_P1;SDS_P2;PMS_P1;PMS_P2;Temp;Humidity;BMP_temperature;BMP_pressure;BME280_temperature;BME280_humidity;BME280_pressure;Samples;Min_cycle;Max_cycle;Signal;HPM_P1;HPM_P2
2023/10/05 00:03:03;;;;;;;5.47;2.22;;;19.20;90.70;;;;;;4937283;29;20095;-83
2023/10/05 00:05:35;;;;;;;5.25;2.45;;;19.30;90.80;;;;;;4935753;29;20064;-83
2023/10/05 00:08:02;;;;;;;4.80;2.25;;;19.30;90.70;;;;;;4935392;29;20035;-80
2023/10/05 00:10:28;;;;;;;5.40;2.30;;;19.30;90.70;;;;;;4936909;29;20513;-83
2023/10/05 00:12:59;;;;;;;5.78;2.53;;;19.20;90.70;;;;;;4935495;29;20032;-82
2023/10/05 00:15:27;;;;;;;6.20;2.30;;;19.30;90.70;;;;;;4935733;29;20023;-83
2023/10/05 00:17:54;;;;;;;6.22;2.28;;;19.30;90.60;;;;;;4935422;29;20127;-83
2023/10/05 00:20:32;;;;;;;5.60;2.30;;;19.30;90.60;;;;;;4936513;29;20059;-82
2023/10/05 00:23:01;;;;;;;4.75;2.00;;;19.30;90.60;;;;;;4935518;29;20383;-83
2023/10/05 00:25:28;;;;;;;5.30;2.35;;;19.30;90.50;;;;;;4936454;29;20032;-83
2023/10/05 00:27:55;;;;;;;5.90;2.20;;;19.30;90.60;;;;;;4936374;29;20034;-82
2023/10/05 00:30:23;;;;;;;7.18;2.42;;;19.30;90.60;;;;;;4935333;29;20027;-83
2023/10/05 00:32:56;;;;;;;4.68;2.08;;;19.30;90.60;;;;;;4935318;29;20035;-82
2023/10/05 00:35:26;;;;;;;5.18;2.22;;;19.30;90.60;;;;;;4936472;29;20071;-81
2023/10/05 00:37:52;;;;;;;6.07;2.35;;;19.20;90.60;;;;;;4934986;29;20123;-82
2023/10/05 00:42:53;;;;;;;5.05;2.10;;;19.20;90.70;;;;;;4936649;29;20023;-83
2023/10/05 00:45:24;;;;;;;4.47;2.10;;;19.20;90.70;;;;;;4935008;29;20079;-83
2023/10/05 00:47:51;;;;;;;;;;;19.20;90.70;;;;;;4935289;29;20059;-83
2023/10/05 00:50:17;;;;;;;4.57;2.15;;;19.20;90.70;;;;;;4934919;29;19907;-82
2023/10/05 00:52:44;;;;;;;4.22;1.88;;;19.20;90.70;;;;;;4934912;29;20038;-83
2023/10/05 00:55:11;;;;;;;4.40;2.13;;;19.30;90.80;;;;;;4935109;29;20031;-82
2023/10/05 00:57:38;;;;;;;5.32;2.28;;;19.30;90.80;;;;;;4935114;29;20122;-82
2023/10/05 01:02:31;;;;;;;5.00;2.08;;;19.30;90.80;;;;;;4935899;29;20039;-82
2023/10/05 01:05:01;;;;;;;4.70;2.10;;;19.30;90.80;;;;;;4934452;29;20028;-82
2023/10/05 01:14:58;;;;;;;4.45;2.10;;;19.30;90.70;;;;;;4936103;29;20023;-82
2023/10/05 01:17:26;;;;;;;5.28;2.13;;;19.30;90.70;;;;;;4934553;29;20023;-82
2023/10/05 01:19:56;;;;;;;3.80;1.88;;;19.30;90.70;;;;;;4934314;29;20031;-82
2023/10/05 01:22:23;;;;;;;4.13;1.77;;;19.30;90.70;;;;;;4934538;29;20106;-82
2023/10/05 01:24:49;;;;;;;5.45;1.98;;;19.30;90.70;;;;;;4934735;29;20114;-82
2023/10/05 01:27:16;;;;;;;4.85;2.28;;;19.30;90.70;;;;;;4934328;29;20031;-82
2023/10/05 01:29:41;;;;;;;4.70;2.05;;;19.20;90.70;;;;;;4934304;29;20037;-82
2023/10/05 01:32:07;;;;;;;3.95;1.88;;;19.20;90.70;;;;;;4934208;29;20028;-82
2023/10/05 01:34:33;;;;;;;4.57;2.15;;;19.30;90.80;;;;;;4934409;29;20043;-82
2023/10/05 01:36:58;;;;;;;4.50;1.80;;;19.30;90.80;;;;;;4934451;29;20058;-82
2023/10/05 01:39:26;;;;;;;3.72;1.90;;;19.20;90.80;;;;;;4934056;29;20508;-82
2023/10/05 01:41:51;;;;;;;4.90;1.92;;;19.20;90.80;;;;;;4934253;29;20062;-82
2023/10/05 01:44:17;;;;;;;4.57;2.00;;;19.20;90.80;;;;;;4934178;29;20055;-82
2023/10/05 01:46:44;;;;;;;4.55;1.98;;;19.20;90.80;;;;;;4934190;29;20482;-82
2023/10/05 01:49:09;;;;;;;3.97;1.85;;;19.20;90.80;;;;;;4935237;29;20027;-82
2023/10/05 01:51:35;;;;;;;4.88;2.00;;;19.20;90.90;;;;;;4934250;29;20111;-82
2023/10/05 01:54:11;;;;;;;4.40;1.80;;;19.20;90.80;;;;;;4935088;29;20082;-82
2023/10/05 01:56:39;;;;;;;3.55;1.73;;;19.20;90.90;;;;;;4934086;29;20039;-82
2023/10/05 01:59:07;;;;;;;4.55;2.03;;;19.20;90.90;;;;;;4933831;29;20020;-82
2023/10/05 02:01:37;;;;;;;5.18;2.20;;;19.20;90.90;;;;;;4934077;29;20034;-82
2023/10/05 02:04:03;;;;;;;3.30;1.67;;;19.20;90.80;;;;;;4934008;29;20058;-82
2023/10/05 02:06:39;;;;;;;4.95;2.13;;;19.20;90.80;;;;;;4934068;29;20744;-82
2023/10/05 02:09:04;;;;;;;3.55;1.60;;;19.20;90.80;;;;;;4933743;29;20558;-82
2023/10/05 02:11:30;;;;;;;4.75;2.20;;;19.20;90.70;;;;;;4933785;29;20040;-82
2023/10/05 02:14:03;;;;;;;5.13;2.00;;;19.20;90.70;;;;;;4933980;29;20123;-82
2023/10/05 02:16:30;;;;;;;3.97;1.80;;;19.30;90.70;;;;;;4933970;29;20024;-82
2023/10/05 02:18:56;;;;;;;4.90;1.95;;;19.30;90.70;;;;;;4937128;29;20023;-82
2023/10/05 02:21:36;;;;;;;3.28;1.60;;;19.20;90.70;;;;;;4937732;29;20023;-82
2023/10/05 02:24:25;;;;;;;4.40;1.98;;;19.20;90.80;;;;;;4937710;29;20028;-82
2023/10/05 02:29:27;;;;;;;4.85;1.98;;;19.20;90.80;;;;;;4938832;29;20028;-82
2023/10/05 02:34:33;;;;;;;4.15;1.90;;;19.20;90.80;;;;;;4938992;29;20024;-82
2023/10/05 02:37:00;;;;;;;3.88;1.70;;;19.20;90.80;;;;;;4937460;29;20027;-83
2023/10/05 02:39:26;;;;;;;4.68;1.90;;;19.20;90.80;;;;;;4937105;29;20028;-82
2023/10/05 02:41:54;;;;;;;3.85;1.73;;;19.20;90.90;;;;;;4937240;29;20043;-82
2023/10/05 02:44:30;;;;;;;5.00;2.20;;;19.20;90.90;;;;;;4937247;29;20444;-82
2023/10/05 02:46:56;;;;;;;4.13;1.80;;;19.20;90.90;;;;;;4938421;29;20110;-82
2023/10/05 02:49:24;;;;;;;4.70;2.00;;;19.20;90.90;;;;;;4938099;29;20051;-82
2023/10/05 02:51:52;;;;;;;4.28;1.88;;;19.10;90.90;;;;;;4937041;29;20123;-82
2023/10/05 02:54:18;;;;;;;4.78;1.85;;;19.10;90.90;;;;;;4934256;29;20032;-82
2023/10/05 02:56:44;;;;;;;4.35;1.77;;;19.20;90.90;;;;;;4936783;29;20114;-82
2023/10/05 02:59:10;;;;;;;4.05;1.67;;;19.20;90.90;;;;;;4937846;29;20148;-82
2023/10/05 03:01:39;;;;;;;3.92;1.85;;;19.20;90.90;;;;;;4936883;29;20031;-82
2023/10/05 03:06:41;;;;;;;3.63;1.70;;;19.20;90.80;;;;;;4938258;29;20024;-82
2023/10/05 03:09:08;;;;;;;4.68;1.92;;;19.20;90.80;;;;;;4936628;29;20024;-82
2023/10/05 03:11:52;;;;;;;4.05;1.70;;;19.20;90.80;;;;;;4936687;29;20035;-82
2023/10/05 03:14:18;;;;;;;4.20;1.63;;;19.20;90.80;;;;;;4936758;29;20512;-82
2023/10/05 03:16:44;;;;;;;4.05;1.83;;;19.20;90.70;;;;;;4936636;29;20024;-82
2023/10/05 03:19:20;;;;;;;3.85;1.52;;;19.20;90.80;;;;;;4936383;29;20030;-82
2023/10/05 03:21:47;;;;;;;4.78;2.08;;;19.20;90.90;;;;;;4936597;29;20053;-82
2023/10/05 03:24:15;;;;;;;4.57;1.80;;;19.20;90.80;;;;;;4937706;29;20115;-82
2023/10/05 03:26:42;;;;;;;3.90;1.60;;;19.20;90.80;;;;;;4936564;29;20036;-82
2023/10/05 03:29:11;;;;;;;3.05;1.60;;;19.10;90.80;;;;;;4935263;29;20445;-82
2023/10/05 03:32:28;;;;;;;4.85;1.88;;;19.20;90.90;;;;;;4936390;29;20054;-82
2023/10/05 03:34:25;;;;;;;3.88;1.67;;;19.10;90.90;;;;;;4933501;29;20040;-82
2023/10/05 03:36:55;;;;;;;3.17;1.65;;;19.10;90.90;;;;;;4936366;29;20028;-82
2023/10/05 03:39:23;;;;;;;4.47;1.80;;;19.10;90.90;;;;;;4935960;29;20418;-82
2023/10/05 03:41:49;;;;;;;3.17;1.55;;;19.10;90.90;;;;;;4937345;29;20020;-82
2023/10/05 03:44:17;;;;;;;3.42;1.70;;;19.10;90.90;;;;;;4936016;29;20398;-82
2023/10/05 03:46:46;;;;;;;4.18;1.70;;;19.10;90.90;;;;;;4936189;29;20024;-82
2023/10/05 03:49:15;;;;;;;3.45;1.70;;;19.10;90.90;;;;;;4935884;29;20076;-82
2023/10/05 03:51:49;;;;;;;3.75;1.50;;;19.10;90.90;;;;;;4936036;29;20075;-82
2023/10/05 03:54:16;;;;;;;4.28;2.05;;;19.10;90.90;;;;;;4937169;29;20053;-82
2023/10/05 03:56:42;;;;;;;3.25;1.67;;;19.10;90.90;;;;;;4935901;29;20027;-82
2023/10/05 03:59:08;;;;;;;4.10;1.73;;;19.10;90.90;;;;;;4935811;29;20031;-82
2023/10/05 04:01:34;;;;;;;3.95;1.70;;;19.10;90.90;;;;;;4935869;29;20020;-82
2023/10/05 04:04:04;;;;;;;4.32;1.58;;;19.20;90.90;;;;;;4936902;29;20590;-82
2023/10/05 04:06:30;;;;;;;3.80;1.75;;;19.20;90.90;;;;;;4935890;29;20031;-82
2023/10/05 04:08:59;;;;;;;3.33;1.42;;;19.20;90.90;;;;;;4935332;29;20024;-82
2023/10/05 04:11:28;;;;;;;2.85;1.33;;;19.20;90.80;;;;;;4935661;29;20108;-82
2023/10/05 04:13:54;;;;;;;4.13;1.83;;;19.20;90.80;;;;;;4936826;29;20036;-82
2023/10/05 04:16:28;;;;;;;3.08;1.40;;;19.10;90.80;;;;;;4935626;29;20027;-82
2023/10/05 04:18:54;;;;;;;4.35;1.50;;;19.10;90.80;;;;;;4935521;29;20034;-82
2023/10/05 04:21:22;;;;;;;3.85;1.70;;;19.10;90.80;;;;;;4935467;29;20083;-82
2023/10/05 04:23:50;;;;;;;3.60;1.70;;;19.10;90.80;;;;;;4935404;29;20039;-82
2023/10/05 04:26:20;;;;;;;3.55;1.40;;;19.10;90.80;;;;;;4935418;29;20031;-82
2023/10/05 04:28:52;;;;;;;3.20;1.40;;;19.10;90.90;;;;;;4934935;29;20397;-82
2023/10/05 04:31:25;;;;;;;3.53;1.40;;;19.10;90.90;;;;;;4935343;29;20514;-83
2023/10/05 04:33:52;;;;;;;4.03;1.60;;;19.10;90.90;;;;;;4934402;29;20043;-81
2023/10/05 04:36:25;;;;;;;3.80;1.50;;;19.10;90.90;;;;;;4931844;29;20119;-82
2023/10/05 04:38:53;;;;;;;3.85;1.52;;;19.10;90.90;;;;;;4931497;29;20019;-82
2023/10/05 04:41:28;;;;;;;4.07;1.60;;;19.10;90.90;;;;;;4931611;29;20080;-84
2023/10/05 04:43:55;;;;;;;3.22;1.63;;;19.10;91.00;;;;;;4931621;29;20038;-80
2023/10/05 04:46:21;;;;;;;3.95;1.58;;;19.10;91.00;;;;;;4932129;29;20063;-82
2023/10/05 04:48:56;;;;;;;3.60;1.50;;;19.10;91.00;;;;;;4921199;29;20032;-81
2023/10/05 04:51:30;;;;;;;3.42;1.50;;;19.10;91.00;;;;;;4935613;29;20123;-83
2023/10/05 04:53:59;;;;;;;3.53;1.30;;;19.10;91.00;;;;;;4929398;29;20031;-81
2023/10/05 04:56:43;;;;;;;3.88;1.80;;;19.10;91.00;;;;;;4920006;29;20051;-82
2023/10/05 05:07:09;;;;;;;3.35;1.38;;;19.10;90.90;;;;;;4938404;29;20102;-83
2023/10/05 05:09:38;;;;;;;3.47;1.38;;;19.10;90.90;;;;;;4930792;29;20031;-83
2023/10/05 05:12:09;;;;;;;3.40;1.50;;;19.10;90.90;;;;;;4931599;29;20118;-82
2023/10/05 05:14:42;;;;;;;3.38;1.40;;;19.10;90.90;;;;;;4931469;29;20084;-82
2023/10/05 05:17:13;;;;;;;4.00;1.60;;;19.10;90.90;;;;;;4931997;29;20067;-81
2023/10/05 05:19:39;;;;;;;2.55;1.40;;;19.10;90.90;;;;;;4931468;29;20055;-82
2023/10/05 05:22:05;;;;;;;4.07;1.50;;;19.10;90.90;;;;;;4930563;29;20622;-83
2023/10/05 05:24:32;;;;;;;3.30;1.50;;;19.20;91.00;;;;;;4931997;29;20110;-83
2023/10/05 05:27:11;;;;;;;2.85;1.40;;;19.10;90.90;;;;;;4938753;29;20033;-81
2023/10/05 05:29:36;;;;;;;3.35;1.42;;;19.10;91.00;;;;;;4949963;28;20027;-80
2023/10/05 05:32:11;;;;;;;3.47;1.60;;;19.10;91.00;;;;;;4952292;28;20445;-82
2023/10/05 05:34:37;;;;;;;2.65;1.38;;;19.10;91.00;;;;;;4951687;28;20033;-82
2023/10/05 05:37:07;;;;;;;3.10;1.55;;;19.00;91.00;;;;;;4950622;29;20504;-82
2023/10/05 05:39:39;;;;;;;3.38;1.45;;;19.10;91.00;;;;;;4951634;28;20023;-83
2023/10/05 05:42:07;;;;;;;3.33;1.40;;;19.10;91.00;;;;;;4950159;29;20118;-82
2023/10/05 05:44:35;;;;;;;3.53;1.50;;;19.00;91.00;;;;;;4950093;29;20065;-83
2023/10/05 05:47:09;;;;;;;3.30;1.60;;;19.00;91.00;;;;;;4945513;29;20115;-81
2023/10/05 05:49:36;;;;;;;4.75;1.60;;;19.00;91.00;;;;;;4930362;29;20039;-82
2023/10/05 05:52:05;;;;;;;3.83;1.50;;;19.00;91.00;;;;;;4931488;29;20091;-82
2023/10/05 05:54:33;;;;;;;2.95;1.27;;;19.10;91.00;;;;;;4935175;29;20024;-82
2023/10/05 05:56:59;;;;;;;2.47;1.20;;;19.10;91.00;;;;;;4936583;29;20020;-83
2023/10/05 05:59:24;;;;;;;3.78;1.50;;;19.10;91.00;;;;;;4938862;29;20034;-82
2023/10/05 06:01:50;;;;;;;3.72;1.50;;;19.10;91.00;;;;;;4935093;29;20020;-82
2023/10/05 06:04:16;;;;;;;3.42;1.58;;;19.10;91.00;;;;;;4934920;29;20075;-81
2023/10/05 06:06:43;;;;;;;3.50;1.48;;;19.10;90.90;;;;;;4935144;29;20086;-83
2023/10/05 06:09:11;;;;;;;3.42;1.40;;;19.10;90.90;;;;;;4935340;29;20055;-82
2023/10/05 06:11:40;;;;;;;3.50;1.48;;;19.10;90.90;;;;;;4935237;29;20066;-82
2023/10/05 06:14:06;;;;;;;4.28;1.52;;;19.10;90.90;;;;;;4935307;29;20031;-85
2023/10/05 06:16:33;;;;;;;3.55;1.60;;;19.00;90.90;;;;;;4935496;29;20035;-84
2023/10/05 06:19:00;;;;;;;2.80;1.35;;;19.10;91.00;;;;;;4936183;29;20027;-83
2023/10/05 06:21:25;;;;;;;3.30;1.50;;;19.00;91.00;;;;;;4935541;29;20371;-82
2023/10/05 06:23:51;;;;;;;2.90;1.40;;;19.10;91.00;;;;;;4936783;29;20067;-83
2023/10/05 06:26:17;;;;;;;4.63;1.55;;;19.00;91.00;;;;;;4935296;29;20028;-82
2023/10/05 06:28:42;;;;;;;2.88;1.50;;;19.00;91.00;;;;;;4934897;29;20031;-83
2023/10/05 06:31:14;;;;;;;4.28;1.70;;;19.10;91.00;;;;;;4936345;29;20118;-82
2023/10/05 06:33:42;;;;;;;4.90;1.98;;;19.00;90.90;;;;;;4935016;29;20046;-82
2023/10/05 06:36:08;;;;;;;3.50;1.40;;;19.00;90.90;;;;;;4934939;29;20509;-83
2023/10/05 06:38:35;;;;;;;4.07;1.60;;;19.00;90.90;;;;;;4934856;29;20032;-82
2023/10/05 06:41:00;;;;;;;4.05;1.58;;;19.00;90.90;;;;;;4935105;29;20799;-83
2023/10/05 06:43:26;;;;;;;3.88;1.60;;;19.00;90.90;;;;;;4934862;29;20067;-83
2023/10/05 06:45:52;;;;;;;3.00;1.50;;;19.00;90.90;;;;;;4935802;29;20032;-82
2023/10/05 06:48:18;;;;;;;4.53;1.70;;;19.00;90.90;;;;;;4934509;29;20098;-84
2023/10/05 06:50:46;;;;;;;3.78;1.60;;;19.00;90.90;;;;;;4934751;29;20560;-82
2023/10/05 06:53:12;;;;;;;3.60;1.42;;;19.10;90.90;;;;;;4934899;29;20521;-85
2023/10/05 06:55:38;;;;;;;2.47;1.50;;;19.10;90.90;;;;;;4934883;29;20030;-85
2023/10/05 06:58:04;;;;;;;3.70;1.60;;;19.10;90.80;;;;;;4935147;29;20410;-84
2023/10/05 07:00:30;;;;;;;3.42;1.75;;;19.20;90.80;;;;;;4936754;29;20036;-85
2023/10/05 07:02:58;;;;;;;3.13;1.60;;;19.20;90.70;;;;;;4934856;29;20036;-85
2023/10/05 07:05:24;;;;;;;3.22;1.40;;;19.70;90.80;;;;;;4935295;29;20055;-85
2023/10/05 07:07:50;;;;;;;3.53;1.58;;;19.40;90.70;;;;;;4935044;29;20076;-85
2023/10/05 07:10:16;;;;;;;3.60;1.60;;;19.80;90.80;;;;;;4935167;29;20043;-85
2023/10/05 07:12:46;;;;;;;3.55;1.50;;;19.00;90.50;;;;;;4935611;29;20040;-86
2023/10/05 07:15:15;;;;;;;3.15;1.20;;;19.30;90.60;;;;;;4935437;29;20027;-86
2023/10/05 07:17:41;;;;;;;3.03;1.60;;;19.20;90.60;;;;;;4935305;29;20079;-85
2023/10/05 07:20:11;;;;;;;3.83;1.50;;;19.30;90.60;;;;;;4934127;29;20035;-84
2023/10/05 07:22:41;;;;;;;3.80;1.60;;;19.30;90.70;;;;;;4934489;29;20036;-87
2023/10/05 07:25:08;;;;;;;4.00;1.70;;;19.20;90.70;;;;;;4934386;29;20024;-87
2023/10/05 07:27:34;;;;;;;3.05;1.42;;;19.20;90.70;;;;;;4934751;29;20042;-86
2023/10/05 07:30:04;;;;;;;3.25;1.52;;;19.20;90.70;;;;;;4934113;29;20470;-84
2023/10/05 07:32:36;;;;;;;4.50;1.60;;;19.20;90.70;;;;;;4934559;29;20091;-84
2023/10/05 07:35:02;;;;;;;4.40;1.63;;;19.40;90.70;;;;;;4935146;29;20119;-86
2023/10/05 07:37:28;;;;;;;2.85;1.45;;;19.20;90.70;;;;;;4934717;29;20058;-85
2023/10/05 07:39:55;;;;;;;3.50;1.52;;;19.20;90.70;;;;;;4933480;29;20993;-84
2023/10/05 07:42:20;;;;;;;3.55;1.50;;;19.30;90.70;;;;;;4934246;29;20497;-85
2023/10/05 07:44:46;;;;;;;3.75;1.60;;;19.30;90.70;;;;;;4933961;29;20108;-85
2023/10/05 07:47:12;;;;;;;3.55;1.63;;;19.90;90.80;;;;;;4933828;29;20028;-85
2023/10/05 07:49:38;;;;;;;3.38;1.58;;;19.20;90.70;;;;;;4933839;29;20024;-85
2023/10/05 07:52:07;;;;;;;4.10;1.60;;;19.30;90.70;;;;;;4934221;29;20028;-85
2023/10/05 07:54:34;;;;;;;3.55;1.48;;;19.30;90.70;;;;;;4934157;29;20039;-83
2023/10/05 07:57:03;;;;;;;3.78;1.60;;;19.30;90.60;;;;;;4933390;29;20613;-84
2023/10/05 07:59:28;;;;;;;2.50;1.38;;;19.30;90.60;;;;;;4933216;29;20028;-83
2023/10/05 08:01:55;;;;;;;5.07;1.63;;;19.40;90.60;;;;;;4933619;29;20024;-83
2023/10/05 08:04:22;;;;;;;3.58;1.58;;;19.40;90.50;;;;;;4934651;29;20043;-85
2023/10/05 08:06:48;;;;;;;2.63;1.30;;;19.40;90.50;;;;;;4933493;29;20442;-83
2023/10/05 08:09:15;;;;;;;2.50;1.38;;;19.40;90.50;;;;;;4934495;29;20120;-84
2023/10/05 08:11:43;;;;;;;3.25;1.60;;;19.40;90.50;;;;;;4933387;29;20118;-83
2023/10/05 08:14:10;;;;;;;3.33;1.67;;;19.40;90.50;;;;;;4933276;29;20032;-84
2023/10/05 08:16:35;;;;;;;2.28;1.33;;;19.30;90.50;;;;;;4932848;29;20034;-83
2023/10/05 08:19:01;;;;;;;2.63;1.30;;;19.40;90.60;;;;;;4932995;29;20032;-83
2023/10/05 08:21:27;;;;;;;4.10;1.92;;;19.30;90.60;;;;;;4933420;29;20020;-83
2023/10/05 08:23:52;;;;;;;3.30;1.52;;;19.30;90.60;;;;;;4933416;29;20024;-82
2023/10/05 08:26:18;;;;;;;3.95;1.60;;;19.20;90.60;;;;;;4934427;29;20028;-84
2023/10/05 08:28:50;;;;;;;2.80;1.55;;;19.30;90.60;;;;;;4932858;29;20027;-83
2023/10/05 08:31:22;;;;;;;3.70;1.60;;;19.30;90.60;;;;;;4934557;29;20066;-83
2023/10/05 08:33:49;;;;;;;3.30;1.70;;;19.30;90.70;;;;;;4932818;29;20564;-83
2023/10/05 08:36:17;;;;;;;3.35;1.20;;;19.30;90.60;;;;;;4932676;29;20050;-82
2023/10/05 08:38:47;;;;;;;4.63;1.80;;;19.30;90.60;;;;;;4932326;29;20490;-84
2023/10/05 08:41:24;;;;;;;3.00;1.50;;;19.30;90.60;;;;;;4934259;29;20517;-83
2023/10/05 08:43:50;;;;;;;2.78;1.50;;;19.30;90.60;;;;;;4933035;29;20579;-84
2023/10/05 08:46:19;;;;;;;3.20;1.38;;;19.30;90.60;;;;;;4932501;29;20114;-82
2023/10/05 08:48:46;;;;;;;2.80;1.40;;;19.30;90.60;;;;;;4934371;29;20105;-84
2023/10/05 08:51:12;;;;;;;3.10;1.40;;;19.40;90.60;;;;;;4933124;29;20409;-83
2023/10/05 08:53:44;;;;;;;4.35;1.67;;;19.30;90.60;;;;;;4933284;29;20035;-83
2023/10/05 08:56:13;;;;;;;2.58;1.30;;;19.40;90.60;;;;;;4932657;29;20039;-81
2023/10/05 08:58:45;;;;;;;3.47;1.40;;;19.40;90.60;;;;;;4932402;29;20027;-83
2023/10/05 09:01:35;;;;;;;3.22;1.38;;;19.30;90.50;;;;;;4933087;29;20541;-82
2023/10/05 09:04:23;;;;;;;2.67;1.30;;;19.40;90.50;;;;;;4932315;29;20501;-81
2023/10/05 09:06:59;;;;;;;3.60;1.52;;;19.40;90.50;;;;;;4934085;29;20110;-83
2023/10/05 09:09:28;;;;;;;3.15;1.52;;;19.30;90.50;;;;;;4932190;29;20509;-83
2023/10/05 09:11:56;;;;;;;2.63;1.33;;;19.40;90.50;;;;;;4931471;29;20071;-82
2023/10/05 09:14:38;;;;;;;2.92;1.35;;;19.40;90.50;;;;;;4931967;29;20036;-83
2023/10/05 09:17:07;;;;;;;3.00;1.50;;;19.30;90.50;;;;;;4932025;29;20031;-82
2023/10/05 09:19:33;;;;;;;4.15;1.50;;;19.40;90.60;;;;;;4933083;29;20020;-81
2023/10/05 09:22:10;;;;;;;4.05;1.30;;;19.30;90.60;;;;;;4933488;29;20027;-83
2023/10/05 09:24:36;;;;;;;3.40;1.50;;;19.30;90.60;;;;;;4933508;29;20026;-82
2023/10/05 09:27:16;;;;;;;3.63;1.50;;;19.30;90.60;;;;;;4931542;29;20122;-83
2023/10/05 09:29:43;;;;;;;2.75;1.17;;;19.30;90.60;;;;;;4933608;29;20019;-83
2023/10/05 09:32:30;;;;;;;3.08;1.50;;;19.30;90.70;;;;;;4932232;29;20028;-83
2023/10/05 09:34:56;;;;;;;3.78;1.50;;;19.30;90.70;;;;;;4933245;29;20038;-82
2023/10/05 09:37:26;;;;;;;3.20;1.60;;;19.30;90.70;;;;;;4932286;29;20118;-82
2023/10/05 09:39:59;;;;;;;3.22;1.40;;;19.30;90.70;;;;;;4932282;29;20027;-83
2023/10/05 09:42:25;;;;;;;3.38;1.38;;;19.30;90.70;;;;;;4931766;29;20044;-82
2023/10/05 09:44:58;;;;;;;3.53;1.70;;;19.30;90.70;;;;;;4934314;29;20039;-82
2023/10/05 09:47:25;;;;;;;3.65;1.48;;;19.30;90.70;;;;;;4933514;29;20507;-82
2023/10/05 09:49:55;;;;;;;2.95;1.40;;;19.30;90.70;;;;;;4931184;29;20028;-83
2023/10/05 09:52:24;;;;;;;2.72;1.15;;;19.30;90.70;;;;;;4931693;29;20508;-83
2023/10/05 09:54:49;;;;;;;3.03;1.50;;;19.30;90.70;;;;;;4931704;29;20082;-82
2023/10/05 09:57:20;;;;;;;2.92;1.15;;;19.30;90.60;;;;;;4931422;29;20980;-82
2023/10/05 09:59:59;;;;;;;3.90;1.42;;;19.40;90.60;;;;;;4933656;29;20034;-81
2023/10/05 10:02:34;;;;;;;3.38;1.45;;;19.40;90.50;;;;;;4950655;29;20031;-82
2023/10/05 10:05:16;;;;;;;3.20;1.40;;;19.40;90.50;;;;;;4950829;29;20042;-82
2023/10/05 10:07:49;;;;;;;4.05;1.63;;;19.40;90.50;;;;;;4950709;29;20024;-83
2023/10/05 10:10:18;;;;;;;3.55;1.58;;;19.40;90.50;;;;;;4950613;28;20031;-83
2023/10/05 10:12:47;;;;;;;3.22;1.60;;;19.40;90.50;;;;;;4950784;29;20391;-82
2023/10/05 10:15:28;;;;;;;3.97;1.50;;;19.40;90.50;;;;;;4950568;29;20517;-83
2023/10/05 10:18:14;;;;;;;3.45;1.50;;;19.40;90.50;;;;;;4951285;28;20106;-81
2023/10/05 10:20:49;;;;;;;3.15;1.40;;;19.30;90.60;;;;;;4949860;29;20019;-82
2023/10/05 10:23:27;;;;;;;2.90;1.60;;;19.40;90.60;;;;;;4950559;29;20028;-83
2023/10/05 10:26:16;;;;;;;2.88;1.25;;;19.30;90.60;;;;;;4949829;29;20406;-82
2023/10/05 10:31:26;;;;;;;2.90;1.30;;;19.30;90.60;;;;;;4952149;28;20077;-81
2023/10/05 10:33:51;;;;;;;3.45;1.50;;;19.30;90.70;;;;;;4951764;28;20122;-81
2023/10/05 10:36:47;;;;;;;2.88;1.30;;;19.30;90.70;;;;;;4949932;29;20146;-82
2023/10/05 10:39:23;;;;;;;2.75;1.23;;;19.30;90.70;;;;;;4945153;28;20063;-80
2023/10/05 10:42:04;;;;;;;3.40;1.67;;;19.30;90.70;;;;;;4955670;28;20525;-82
2023/10/05 10:47:39;;;;;;;3.90;1.33;;;19.30;90.70;;;;;;4943162;28;20894;-82
2023/10/05 10:50:51;;;;;;;3.30;1.40;;;19.30;90.70;;;;;;4954833;28;20454;-83
2023/10/05 10:52:56;;;;;;;3.35;1.30;;;19.30;90.70;;;;;;4947984;29;20087;-82
2023/10/05 10:55:30;;;;;;;2.58;1.33;;;19.30;90.60;;;;;;4954576;29;20027;-80
2023/10/05 10:57:57;;;;;;;3.42;1.35;;;19.30;90.60;;;;;;4953996;29;20027;-81
2023/10/05 11:00:54;;;;;;;3.40;1.48;;;19.40;90.80;;;;;;4953786;28;20023;-81
2023/10/05 11:03:24;;;;;;;2.42;1.10;;;19.40;90.50;;;;;;4954486;29;20125;-82
2023/10/05 11:05:58;;;;;;;2.92;1.30;;;19.40;90.50;;;;;;4943581;29;20039;-81
2023/10/05 11:08:24;;;;;;;3.92;1.30;;;19.40;90.50;;;;;;4915593;29;20055;-81
2023/10/05 11:11:09;;;;;;;3.97;1.40;;;19.40;90.50;;;;;;4915882;29;20438;-82
2023/10/05 11:13:43;;;;;;;2.95;1.25;;;19.40;90.50;;;;;;4913959;29;20270;-82
2023/10/05 11:16:09;;;;;;;3.95;1.30;;;19.40;90.50;;;;;;4913715;29;20125;-82
2023/10/05 11:18:41;;;;;;;2.60;1.40;;;19.40;90.60;;;;;;4913655;29;20043;-83
2023/10/05 11:21:12;;;;;;;3.67;1.30;;;19.40;90.60;;;;;;4913933;29;20024;-80
2023/10/05 11:23:55;;;;;;;3.70;1.58;;;19.40;90.60;;;;;;4913929;29;20028;-80
2023/10/05 11:26:56;;;;;;;3.42;1.30;;;19.40;90.60;;;;;;4914890;29;20051;-82
2023/10/05 11:29:28;;;;;;;2.97;1.35;;;19.40;90.60;;;;;;4914906;29;20032;-82
2023/10/05 11:32:12;;;;;;;2.38;1.30;;;19.40;90.70;;;;;;4913688;29;20028;-82
2023/10/05 11:34:39;;;;;;;3.95;1.40;;;19.40;90.60;;;;;;4913443;29;20107;-81
2023/10/05 11:37:15;;;;;;;3.85;1.50;;;19.40;90.60;;;;;;4913662;29;20028;-82
2023/10/05 11:39:41;;;;;;;2.75;1.20;;;19.40;90.60;;;;;;4914507;29;20534;-82
2023/10/05 11:42:10;;;;;;;3.33;1.40;;;19.40;90.60;;;;;;4913833;29;20056;-83
2023/10/05 11:44:37;;;;;;;2.63;1.20;;;19.40;90.60;;;;;;4913624;29;20114;-82
2023/10/05 11:47:07;;;;;;;2.72;1.17;;;19.40;90.60;;;;;;4914694;29;20087;-81
2023/10/05 11:49:33;;;;;;;3.13;1.33;;;19.40;90.60;;;;;;4912644;29;20063;-80
2023/10/05 11:52:00;;;;;;;2.92;1.35;;;19.50;90.60;;;;;;4913396;29;20036;-82
2023/10/05 11:54:34;;;;;;;4.78;1.45;;;19.50;90.50;;;;;;4913206;29;20083;-81
2023/10/05 11:57:05;;;;;;;2.92;1.27;;;19.50;90.50;;;;;;4913619;29;20026;-82
2023/10/05 11:59:31;;;;;;;3.30;1.25;;;19.60;90.40;;;;;;4928690;29;20039;-81
2023/10/05 12:01:58;;;;;;;3.08;1.10;;;19.60;90.40;;;;;;4913168;29;20032;-81
2023/10/05 12:04:24;;;;;;;2.47;1.30;;;19.60;90.40;;;;;;4913155;29;20063;-82
2023/10/05 12:06:59;;;;;;;4.07;1.35;;;19.60;90.30;;;;;;4914201;29;20082;-81
2023/10/05 12:09:32;;;;;;;2.00;1.20;;;19.50;90.30;;;;;;4913003;29;20375;-82
2023/10/05 12:12:03;;;;;;;3.33;1.38;;;19.60;90.40;;;;;;4914199;29;20040;-82
2023/10/05 12:14:29;;;;;;;3.17;1.20;;;19.60;90.40;;;;;;4912748;29;20042;-83
2023/10/05 12:16:56;;;;;;;2.28;1.17;;;19.60;90.40;;;;;;4912835;29;20498;-82
2023/10/05 12:19:29;;;;;;;2.25;1.17;;;19.60;90.40;;;;;;4912607;29;20035;-82
2023/10/05 12:21:56;;;;;;;2.55;1.17;;;19.50;90.50;;;;;;4913115;29;20028;-82
2023/10/05 12:24:22;;;;;;;2.60;1.30;;;19.50;90.50;;;;;;4912876;29;20036;-82
2023/10/05 12:26:48;;;;;;;3.17;1.20;;;19.50;90.50;;;;;;4912621;29;20080;-82
2023/10/05 12:29:14;;;;;;;4.68;1.50;;;19.50;90.50;;;;;;4912446;29;20036;-82
2023/10/05 12:31:41;;;;;;;3.20;1.20;;;19.50;90.50;;;;;;4928255;29;20452;-81
2023/10/05 12:34:14;;;;;;;3.65;1.20;;;19.40;90.50;;;;;;4912208;29;20028;-82
2023/10/05 12:36:49;;;;;;;2.88;1.40;;;19.50;90.60;;;;;;4930169;29;20032;-81
2023/10/05 12:39:27;;;;;;;3.05;1.20;;;19.50;90.60;;;;;;4931152;29;20031;-82
2023/10/05 12:41:54;;;;;;;3.13;1.55;;;19.50;90.60;;;;;;4931328;29;20028;-82
2023/10/05 12:44:20;;;;;;;2.95;1.33;;;19.50;90.60;;;;;;4931173;29;20067;-81
2023/10/05 12:46:47;;;;;;;2.72;1.30;;;19.50;90.60;;;;;;4931390;29;20054;-82
2023/10/05 12:49:14;;;;;;;2.15;1.30;;;19.50;90.60;;;;;;4930787;29;20036;-81
2023/10/05 12:51:41;;;;;;;3.42;1.40;;;19.50;90.60;;;;;;4931215;29;20036;-81
2023/10/05 12:54:18;;;;;;;2.88;1.10;;;19.50;90.50;;;;;;4931174;29;20043;-82
2023/10/05 12:56:45;;;;;;;2.53;1.02;;;19.60;90.50;;;;;;4931073;29;20030;-80
2023/10/05 12:59:10;;;;;;;1.92;1.10;;;19.50;90.40;;;;;;4930822;29;20091;-82
2023/10/05 13:01:41;;;;;;;3.72;1.20;;;19.50;90.40;;;;;;4930710;29;20059;-81
2023/10/05 13:04:08;;;;;;;3.17;1.20;;;19.60;90.40;;;;;;4932029;29;20024;-81
2023/10/05 13:06:34;;;;;;;3.58;1.27;;;19.50;90.40;;;;;;4930970;29;20032;-82
2023/10/05 13:09:03;;;;;;;2.92;1.23;;;19.50;90.50;;;;;;4930668;29;20037;-81
2023/10/05 13:11:30;;;;;;;5.30;1.40;;;19.50;90.50;;;;;;4930781;29;20130;-82
2023/10/05 13:13:56;;;;;;;2.75;1.25;;;19.50;90.50;;;;;;4930853;29;20023;-82
2023/10/05 13:16:22;;;;;;;2.60;1.20;;;19.40;90.50;;;;;;4930672;29;20454;-80
2023/10/05 13:18:49;;;;;;;4.65;1.52;;;19.50;90.60;;;;;;4930717;29;20024;-82
2023/10/05 13:21:19;;;;;;;2.47;1.30;;;19.40;90.60;;;;;;4930836;29;20035;-81
2023/10/05 13:23:45;;;;;;;2.47;1.00;;;19.40;90.60;;;;;;4930418;29;20032;-80
2023/10/05 13:26:11;;;;;;;3.78;1.27;;;19.40;90.70;;;;;;4930949;29;20063;-81
2023/10/05 13:28:37;;;;;;;2.78;1.30;;;19.40;90.70;;;;;;4930431;29;20035;-80
2023/10/05 13:31:06;;;;;;;2.13;1.08;;;19.40;90.70;;;;;;4930615;29;20424;-82
2023/10/05 13:33:35;;;;;;;2.63;1.30;;;19.40;90.70;;;;;;4931038;29;20059;-81
2023/10/05 13:36:07;;;;;;;2.88;1.27;;;19.40;90.70;;;;;;4930527;29;20610;-82